Airfield :
LOGIN :

Register | Disclaimer

   EN    FR    IT 

 










Legend :    VFR   Marginal VFR   IFR   Intensive IFR   Very Intensive IFR
Visi :
Ceiling :
>= 8 km
>= 3000ft
5 to 8 km
1000 to 3000 ft
1500m to 5 km
500 to 1000 ft
800 to 1500m
200 to 500 ft
< 800m
< 200 ft
Symbols :   Thunderstorms  Fog  Heavy snow  Heavy precipitations  Wind > 20 kt
SIGMETs :     Misc.  Thunderstorms  Icing  Turbulence  Mountain Waves  Volcanic Ashes






- Airport Elevation : 38 ft
- IATA code : ADX


EGQL - RAF Leuchars

CURRENT METAR :
  • 052250Z 27011KT 9999 FEW049 SCT140 BKN200 12/07 Q1002 BLU

EXPIRED METARs :
  • 052150Z 28011KT CAVOK 12/07 Q1001 BLU
  • 052050Z 28014KT CAVOK 13/07 Q1000 BLU

TAF TAF EGQL
Valid from the 06 at 00:00 until the 06 at 09:00 UTC


052213Z 0600/0609 26012KT 9999 FEW045
PROB40
TEMPO 0600/0609 28015G25KT
PROB30
TEMPO 0600/0606 7000 SHRA SCT020



MET'MAP, your aeronautical weather chart ! - Copyright ORBIFLY December 2007 - Disclaimer

ORBIFLY MET'MAP TEAM :

Programming & Development : Alexandra Zaïnal
Concept & original design : Baudouin d'Aumeries
Assistance for programming : Marc-Olivier Méhu
Technical & hardware support : Manuel Goepfert

Contact : metmap@orbifly.com




SOURCES & CREDITS :

   NOAA